sensor_id;sensor_type;location;lat;lon;timestamp;pressure;altitude;pressure_sealevel;temperature;humidity
84880;BME280;75141;51.398;21.154;2023-12-28T00:00:20;100132.72;;;1.84;100.00
84880;BME280;75141;51.398;21.154;2023-12-28T00:01:41;100120.44;;;1.81;100.00
84880;BME280;75141;51.398;21.154;2023-12-28T00:02:42;100130.16;;;1.90;100.00
84880;BME280;75141;51.398;21.154;2023-12-28T00:03:43;100090.69;;;1.72;100.00
84880;BME280;75141;51.398;21.154;2023-12-28T00:04:44;100130.25;;;1.98;100.00
84880;BME280;75141;51.398;21.154;2023-12-28T00:05:44;100115.38;;;1.97;100.00
84880;BME280;75141;51.398;21.154;2023-12-28T00:06:45;100125.94;;;2.03;100.00
84880;BME280;75141;51.398;21.154;2023-12-28T00:07:46;100123.34;;;2.07;100.00
84880;BME280;75141;51.398;21.154;2023-12-28T00:08:47;100122.53;;;2.12;100.00
84880;BME280;75141;51.398;21.154;2023-12-28T00:09:49;100058.59;;;1.87;100.00
84880;BME280;75141;51.398;21.154;2023-12-28T00:10:50;100095.47;;;2.11;100.00
84880;BME280;75141;51.398;21.154;2023-12-28T00:11:51;100096.44;;;2.19;100.00
84880;BME280;75141;51.398;21.154;2023-12-28T00:12:52;100106.09;;;2.25;100.00
84880;BME280;75141;51.398;21.154;2023-12-28T00:13:53;100097.31;;;2.20;100.00
84880;BME280;75141;51.398;21.154;2023-12-28T00:14:53;100104.38;;;2.28;100.00
84880;BME280;75141;51.398;21.154;2023-12-28T00:15:54;100100.91;;;2.29;100.00
84880;BME280;75141;51.398;21.154;2023-12-28T00:16:55;100111.38;;;2.32;100.00
84880;BME280;75141;51.398;21.154;2023-12-28T00:17:58;100115.78;;;2.33;100.00
84880;BME280;75141;51.398;21.154;2023-12-28T00:19:03;100111.47;;;2.39;100.00
84880;BME280;75141;51.398;21.154;2023-12-28T00:20:05;100094.00;;;2.39;100.00
84880;BME280;75141;51.398;21.154;2023-12-28T00:21:05;100087.84;;;2.37;100.00
84880;BME280;75141;51.398;21.154;2023-12-28T00:22:06;100087.00;;;2.38;100.00
84880;BME280;75141;51.398;21.154;2023-12-28T00:23:07;100062.47;;;2.27;100.00
84880;BME280;75141;51.398;21.154;2023-12-28T00:24:08;100075.63;;;2.36;100.00
84880;BME280;75141;51.398;21.154;2023-12-28T00:25:09;100058.97;;;2.23;100.00
84880;BME280;75141;51.398;21.154;2023-12-28T00:26:10;100062.44;;;2.25;100.00
84880;BME280;75141;51.398;21.154;2023-12-28T00:27:11;100089.59;;;2.38;100.00
84880;BME280;75141;51.398;21.154;2023-12-28T00:28:11;100079.16;;;2.41;100.00
84880;BME280;75141;51.398;21.154;2023-12-28T00:29:12;100068.69;;;2.40;100.00
84880;BME280;75141;51.398;21.154;2023-12-28T00:30:13;100064.31;;;2.39;100.00
84880;BME280;75141;51.398;21.154;2023-12-28T00:31:14;100050.31;;;2.33;100.00
84880;BME280;75141;51.398;21.154;2023-12-28T00:32:15;100058.19;;;2.35;100.00
84880;BME280;75141;51.398;21.154;2023-12-28T00:33:16;100043.22;;;2.19;100.00
84880;BME280;75141;51.398;21.154;2023-12-28T00:34:17;100069.47;;;2.29;100.00
84880;BME280;75141;51.398;21.154;2023-12-28T00:35:18;100058.13;;;2.30;100.00
84880;BME280;75141;51.398;21.154;2023-12-28T00:36:19;100058.13;;;2.29;100.00
84880;BME280;75141;51.398;21.154;2023-12-28T00:37:20;100062.50;;;2.31;100.00
84880;BME280;75141;51.398;21.154;2023-12-28T00:38:21;100063.38;;;2.30;100.00
84880;BME280;75141;51.398;21.154;2023-12-28T00:39:22;100063.38;;;2.29;100.00
84880;BME280;75141;51.398;21.154;2023-12-28T00:40:23;100059.00;;;2.29;100.00
84880;BME280;75141;51.398;21.154;2023-12-28T00:41:23;100050.28;;;2.30;100.00
84880;BME280;75141;51.398;21.154;2023-12-28T00:42:24;100054.66;;;2.30;100.00
84880;BME280;75141;51.398;21.154;2023-12-28T00:43:25;100045.03;;;2.29;100.00
84880;BME280;75141;51.398;21.154;2023-12-28T00:44:25;100047.66;;;2.30;100.00
84880;BME280;75141;51.398;21.154;2023-12-28T00:45:26;100039.81;;;2.32;100.00
84880;BME280;75141;51.398;21.154;2023-12-28T00:46:26;100035.41;;;2.28;100.00
84880;BME280;75141;51.398;21.154;2023-12-28T00:47:28;100052.91;;;2.29;100.00
84880;BME280;75141;51.398;21.154;2023-12-28T00:48:28;100040.69;;;2.31;100.00
84880;BME280;75141;51.398;21.154;2023-12-28T00:49:29;100043.28;;;2.32;100.00
84880;BME280;75141;51.398;21.154;2023-12-28T00:50:29;100042.41;;;2.29;100.00
84880;BME280;75141;51.398;21.154;2023-12-28T00:51:32;100049.41;;;2.33;100.00
84880;BME280;75141;51.398;21.154;2023-12-28T00:52:33;100043.34;;;2.36;100.00
84880;BME280;75141;51.398;21.154;2023-12-28T00:53:34;100050.31;;;2.33;100.00
84880;BME280;75141;51.398;21.154;2023-12-28T00:54:35;100046.84;;;2.38;100.00
84880;BME280;75141;51.398;21.154;2023-12-28T00:55:37;100047.75;;;2.40;100.00
84880;BME280;75141;51.398;21.154;2023-12-28T00:56:38;100039.88;;;2.41;100.00
84880;BME280;75141;51.398;21.154;2023-12-28T00:57:39;100039.00;;;2.41;100.00
84880;BME280;75141;51.398;21.154;2023-12-28T00:58:40;100033.78;;;2.41;100.00
84880;BME280;75141;51.398;21.154;2023-12-28T00:59:45;100025.94;;;2.44;100.00
84880;BME280;75141;51.398;21.154;2023-12-28T01:00:45;100021.59;;;2.44;100.00
84880;BME280;75141;51.398;21.154;2023-12-28T01:01:46;100019.81;;;2.42;100.00
84880;BME280;75141;51.398;21.154;2023-12-28T01:02:47;100030.34;;;2.49;100.00
84880;BME280;75141;51.398;21.154;2023-12-28T01:03:49;100031.22;;;2.51;100.00
84880;BME280;75141;51.398;21.154;2023-12-28T01:04:50;100023.38;;;2.51;100.00
84880;BME280;75141;51.398;21.154;2023-12-28T01:05:50;100005.88;;;2.47;100.00
84880;BME280;75141;51.398;21.154;2023-12-28T01:06:52;100018.13;;;2.51;100.00
84880;BME280;75141;51.398;21.154;2023-12-28T01:07:53;100010.25;;;2.48;100.00
84880;BME280;75141;51.398;21.154;2023-12-28T01:08:56;100011.16;;;2.52;100.00
84880;BME280;75141;51.398;21.154;2023-12-28T01:09:57;100005.91;;;2.53;100.00
84880;BME280;75141;51.398;21.154;2023-12-28T01:10:57;100002.41;;;2.53;100.00
84880;BME280;75141;51.398;21.154;2023-12-28T01:11:59;100009.44;;;2.54;100.00
84880;BME280;75141;51.398;21.154;2023-12-28T01:12:59;99986.66;;;2.44;100.00
84880;BME280;75141;51.398;21.154;2023-12-28T01:14:00;99998.09;;;2.56;100.00
84880;BME280;75141;51.398;21.154;2023-12-28T01:15:00;99991.97;;;2.56;100.00
84880;BME280;75141;51.398;21.154;2023-12-28T01:16:01;99990.22;;;2.55;100.00
84880;BME280;75141;51.398;21.154;2023-12-28T01:17:02;99990.19;;;2.50;100.00
84880;BME280;75141;51.398;21.154;2023-12-28T01:18:03;99994.63;;;2.59;100.00
84880;BME280;75141;51.398;21.154;2023-12-28T01:19:03;99989.38;;;2.59;100.00
84880;BME280;75141;51.398;21.154;2023-12-28T01:20:05;99997.25;;;2.60;100.00
84880;BME280;75141;51.398;21.154;2023-12-28T01:21:06;99984.19;;;2.65;100.00
84880;BME280;75141;51.398;21.154;2023-12-28T01:22:07;99954.44;;;2.57;100.00
84880;BME280;75141;51.398;21.154;2023-12-28T01:23:07;99974.59;;;2.70;100.00
84880;BME280;75141;51.398;21.154;2023-12-28T01:24:08;99958.88;;;2.69;100.00
84880;BME280;75141;51.398;21.154;2023-12-28T01:25:09;99961.50;;;2.73;100.00
84880;BME280;75141;51.398;21.154;2023-12-28T01:26:13;99955.41;;;2.76;100.00
84880;BME280;75141;51.398;21.154;2023-12-28T01:27:15;99950.19;;;2.82;100.00
84880;BME280;75141;51.398;21.154;2023-12-28T01:28:16;99944.09;;;2.80;100.00
84880;BME280;75141;51.398;21.154;2023-12-28T01:29:16;99944.97;;;2.80;100.00
84880;BME280;75141;51.398;21.154;2023-12-28T01:30:17;99948.47;;;2.84;100.00
84880;BME280;75141;51.398;21.154;2023-12-28T01:31:18;99958.94;;;2.87;100.00
84880;BME280;75141;51.398;21.154;2023-12-28T01:32:19;99951.09;;;2.85;100.00
84880;BME280;75141;51.398;21.154;2023-12-28T01:33:19;99946.75;;;2.91;100.00
84880;BME280;75141;51.398;21.154;2023-12-28T01:34:20;99945.84;;;2.85;100.00
84880;BME280;75141;51.398;21.154;2023-12-28T01:35:21;99951.97;;;2.86;100.00
84880;BME280;75141;51.398;21.154;2023-12-28T01:36:22;99951.06;;;2.82;100.00
84880;BME280;75141;51.398;21.154;2023-12-28T01:37:22;99950.19;;;2.82;100.00
84880;BME280;75141;51.398;21.154;2023-12-28T01:38:23;99943.22;;;2.81;100.00
84880;BME280;75141;51.398;21.154;2023-12-28T01:39:24;99938.84;;;2.80;100.00
84880;BME280;75141;51.398;21.154;2023-12-28T01:40:25;99926.59;;;2.76;100.00
84880;BME280;75141;51.398;21.154;2023-12-28T01:41:25;99923.97;;;2.76;100.00
84880;BME280;75141;51.398;21.154;2023-12-28T01:42:26;99914.34;;;2.78;100.00
84880;BME280;75141;51.398;21.154;2023-12-28T01:43:27;99924.84;;;2.76;100.00
84880;BME280;75141;51.398;21.154;2023-12-28T01:44:28;99928.34;;;2.74;100.00
84880;BME280;75141;51.398;21.154;2023-12-28T01:45:29;99930.97;;;2.75;100.00
84880;BME280;75141;51.398;21.154;2023-12-28T01:46:29;99928.34;;;2.75;100.00
84880;BME280;75141;51.398;21.154;2023-12-28T01:47:31;99908.19;;;2.65;100.00
84880;BME280;75141;51.398;21.154;2023-12-28T01:48:32;99906.44;;;2.67;100.00
84880;BME280;75141;51.398;21.154;2023-12-28T01:49:34;99910.88;;;2.74;100.00
84880;BME280;75141;51.398;21.154;2023-12-28T01:50:36;99908.25;;;2.74;100.00
84880;BME280;75141;51.398;21.154;2023-12-28T01:51:37;99896.88;;;2.69;100.00
84880;BME280;75141;51.398;21.154;2023-12-28T01:52:38;99909.13;;;2.78;100.00
84880;BME280;75141;51.398;21.154;2023-12-28T01:53:39;99908.28;;;2.79;100.00
84880;BME280;75141;51.398;21.154;2023-12-28T01:54:40;99906.50;;;2.82;100.00
84880;BME280;75141;51.398;21.154;2023-12-28T01:55:41;99907.41;;;2.88;100.00
84880;BME280;75141;51.398;21.154;2023-12-28T01:56:44;99903.06;;;2.90;100.00
84880;BME280;75141;51.398;21.154;2023-12-28T01:57:45;99891.69;;;2.84;100.00
84880;BME280;75141;51.398;21.154;2023-12-28T01:58:46;99859.31;;;2.70;100.00
84880;BME280;75141;51.398;21.154;2023-12-28T01:59:52;99896.06;;;2.92;100.00
84880;BME280;75141;51.398;21.154;2023-12-28T02:00:55;99888.22;;;2.92;100.00
84880;BME280;75141;51.398;21.154;2023-12-28T02:01:56;99876.81;;;2.83;100.00
84880;BME280;75141;51.398;21.154;2023-12-28T02:02:57;99882.94;;;2.89;100.00
84880;BME280;75141;51.398;21.154;2023-12-28T02:03:59;99885.63;;;2.95;100.00
84880;BME280;75141;51.398;21.154;2023-12-28T02:05:01;99888.22;;;2.96;100.00
84880;BME280;75141;51.398;21.154;2023-12-28T02:06:02;99882.97;;;2.98;100.00
84880;BME280;75141;51.398;21.154;2023-12-28T02:07:03;99887.38;;;3.00;100.00
84880;BME280;75141;51.398;21.154;2023-12-28T02:08:05;99876.00;;;3.01;100.00
84880;BME280;75141;51.398;21.154;2023-12-28T02:09:06;99879.47;;;2.93;100.00
84880;BME280;75141;51.398;21.154;2023-12-28T02:10:07;99883.88;;;2.95;100.00
84880;BME280;75141;51.398;21.154;2023-12-28T02:11:08;99873.31;;;2.83;100.00
84880;BME280;75141;51.398;21.154;2023-12-28T02:12:09;99897.81;;;2.90;100.00
84880;BME280;75141;51.398;21.154;2023-12-28T02:13:10;99883.84;;;2.84;100.00
84880;BME280;75141;51.398;21.154;2023-12-28T02:14:11;99885.56;;;2.82;100.00
84880;BME280;75141;51.398;21.154;2023-12-28T02:15:11;99886.44;;;2.80;100.00
84880;BME280;75141;51.398;21.154;2023-12-28T02:16:21;99885.53;;;2.78;100.00
84880;BME280;75141;51.398;21.154;2023-12-28T02:17:38;99879.44;;;2.74;100.00
84880;BME280;75141;51.398;21.154;2023-12-28T02:18:49;99865.38;;;2.58;100.00
84880;BME280;75141;51.398;21.154;2023-12-28T02:19:54;99870.66;;;2.68;100.00
84880;BME280;75141;51.398;21.154;2023-12-28T02:21:03;99879.38;;;2.65;100.00
84880;BME280;75141;51.398;21.154;2023-12-28T02:22:07;99867.97;;;2.58;100.00
84880;BME280;75141;51.398;21.154;2023-12-28T02:23:09;99870.63;;;2.60;100.00
84880;BME280;75141;51.398;21.154;2023-12-28T02:24:10;99868.88;;;2.59;100.00
84880;BME280;75141;51.398;21.154;2023-12-28T02:25:11;99862.75;;;2.54;100.00
84880;BME280;75141;51.398;21.154;2023-12-28T02:26:17;99875.84;;;2.57;100.00
84880;BME280;75141;51.398;21.154;2023-12-28T02:27:18;99867.97;;;2.49;100.00
84880;BME280;75141;51.398;21.154;2023-12-28T02:28:20;99867.97;;;2.51;100.00
84880;BME280;75141;51.398;21.154;2023-12-28T02:29:22;99872.31;;;2.52;100.00
84880;BME280;75141;51.398;21.154;2023-12-28T02:30:24;99866.19;;;2.47;100.00
84880;BME280;75141;51.398;21.154;2023-12-28T02:31:49;99865.34;;;2.49;100.00
84880;BME280;75141;51.398;21.154;2023-12-28T02:33:19;99868.81;;;2.47;100.00
84880;BME280;75141;51.398;21.154;2023-12-28T02:34:29;99874.94;;;2.50;100.00
84880;BME280;75141;51.398;21.154;2023-12-28T02:35:59;99865.34;;;2.51;100.00
84880;BME280;75141;51.398;21.154;2023-12-28T02:37:01;99850.44;;;2.42;100.00
84880;BME280;75141;51.398;21.154;2023-12-28T02:38:09;99863.56;;;2.45;100.00
84880;BME280;75141;51.398;21.154;2023-12-28T02:39:11;99849.56;;;2.34;100.00
84880;BME280;75141;51.398;21.154;2023-12-28T02:40:15;99870.53;;;2.40;100.00
84880;BME280;75141;51.398;21.154;2023-12-28T02:41:17;99857.44;;;2.40;100.00
84880;BME280;75141;51.398;21.154;2023-12-28T02:42:18;99853.94;;;2.37;100.00
84880;BME280;75141;51.398;21.154;2023-12-28T02:43:19;99844.31;;;2.34;100.00
84880;BME280;75141;51.398;21.154;2023-12-28T02:44:20;99862.69;;;2.42;100.00
84880;BME280;75141;51.398;21.154;2023-12-28T02:45:21;99855.69;;;2.41;100.00
84880;BME280;75141;51.398;21.154;2023-12-28T02:46:22;99861.81;;;2.41;100.00
84880;BME280;75141;51.398;21.154;2023-12-28T02:47:25;99849.59;;;2.40;100.00
84880;BME280;75141;51.398;21.154;2023-12-28T02:48:26;99842.59;;;2.39;100.00
84880;BME280;75141;51.398;21.154;2023-12-28T02:49:27;99840.81;;;2.37;100.00
84880;BME280;75141;51.398;21.154;2023-12-28T02:50:27;99839.97;;;2.36;100.00
84880;BME280;75141;51.398;21.154;2023-12-28T02:51:30;99844.31;;;2.37;100.00
84880;BME280;75141;51.398;21.154;2023-12-28T02:52:31;99833.81;;;2.29;100.00
84880;BME280;75141;51.398;21.154;2023-12-28T02:53:31;99833.84;;;2.37;100.00
84880;BME280;75141;51.398;21.154;2023-12-28T02:54:33;99832.97;;;2.37;100.00
84880;BME280;75141;51.398;21.154;2023-12-28T02:55:33;99840.84;;;2.33;100.00
84880;BME280;75141;51.398;21.154;2023-12-28T02:56:34;99832.06;;;2.31;100.00
84880;BME280;75141;51.398;21.154;2023-12-28T02:57:34;99833.84;;;2.36;100.00
84880;BME280;75141;51.398;21.154;2023-12-28T02:58:38;99832.97;;;2.35;100.00
84880;BME280;75141;51.398;21.154;2023-12-28T02:59:41;99833.84;;;2.36;100.00
84880;BME280;75141;51.398;21.154;2023-12-28T03:00:42;99827.75;;;2.33;100.00
84880;BME280;75141;51.398;21.154;2023-12-28T03:01:42;99826.88;;;2.34;100.00
84880;BME280;75141;51.398;21.154;2023-12-28T03:02:44;99816.38;;;2.31;100.00
84880;BME280;75141;51.398;21.154;2023-12-28T03:03:45;99820.72;;;2.32;100.00
84880;BME280;75141;51.398;21.154;2023-12-28T03:04:46;99816.38;;;2.33;100.00
84880;BME280;75141;51.398;21.154;2023-12-28T03:05:46;99812.88;;;2.31;100.00
84880;BME280;75141;51.398;21.154;2023-12-28T03:06:48;99809.34;;;2.27;100.00
84880;BME280;75141;51.398;21.154;2023-12-28T03:07:49;99803.25;;;2.27;100.00
84880;BME280;75141;51.398;21.154;2023-12-28T03:08:50;99797.16;;;2.23;100.00
84880;BME280;75141;51.398;21.154;2023-12-28T03:09:53;99805.00;;;2.23;100.00
84880;BME280;75141;51.398;21.154;2023-12-28T03:10:58;99798.00;;;2.21;100.00
84880;BME280;75141;51.398;21.154;2023-12-28T03:11:58;99786.59;;;2.10;100.00
84880;BME280;75141;51.398;21.154;2023-12-28T03:12:59;99797.13;;;2.20;100.00
84880;BME280;75141;51.398;21.154;2023-12-28T03:13:59;99761.22;;;1.96;100.00
84880;BME280;75141;51.398;21.154;2023-12-28T03:15:03;99798.88;;;2.21;100.00
84880;BME280;75141;51.398;21.154;2023-12-28T03:16:04;99786.66;;;2.19;100.00
84880;BME280;75141;51.398;21.154;2023-12-28T03:17:05;99784.88;;;2.16;100.00
84880;BME280;75141;51.398;21.154;2023-12-28T03:18:06;99778.78;;;2.17;100.00
84880;BME280;75141;51.398;21.154;2023-12-28T03:19:07;99790.13;;;2.18;100.00
84880;BME280;75141;51.398;21.154;2023-12-28T03:20:08;99785.75;;;2.17;100.00
84880;BME280;75141;51.398;21.154;2023-12-28T03:21:09;99783.13;;;2.15;100.00
84880;BME280;75141;51.398;21.154;2023-12-28T03:22:10;99784.03;;;2.19;100.00
84880;BME280;75141;51.398;21.154;2023-12-28T03:23:13;99794.50;;;2.20;100.00
84880;BME280;75141;51.398;21.154;2023-12-28T03:24:14;99793.63;;;2.21;100.00
84880;BME280;75141;51.398;21.154;2023-12-28T03:25:15;99786.63;;;2.17;100.00
84880;BME280;75141;51.398;21.154;2023-12-28T03:26:16;99777.03;;;2.15;100.00
84880;BME280;75141;51.398;21.154;2023-12-28T03:27:17;99785.75;;;2.14;100.00
84880;BME280;75141;51.398;21.154;2023-12-28T03:28:17;99777.88;;;2.12;100.00
84880;BME280;75141;51.398;21.154;2023-12-28T03:29:19;99785.72;;;2.12;100.00
84880;BME280;75141;51.398;21.154;2023-12-28T03:30:20;99781.38;;;2.08;100.00
84880;BME280;75141;51.398;21.154;2023-12-28T03:31:21;99771.75;;;2.04;100.00
84880;BME280;75141;51.398;21.154;2023-12-28T03:32:22;99777.00;;;2.08;100.00
84880;BME280;75141;51.398;21.154;2023-12-28T03:33:22;99779.63;;;2.12;100.00
84880;BME280;75141;51.398;21.154;2023-12-28T03:34:23;99791.88;;;2.16;100.00
84880;BME280;75141;51.398;21.154;2023-12-28T03:35:24;99793.59;;;2.15;100.00
84880;BME280;75141;51.398;21.154;2023-12-28T03:36:25;99780.50;;;2.17;100.00
84880;BME280;75141;51.398;21.154;2023-12-28T03:37:25;99782.25;;;2.18;100.00
84880;BME280;75141;51.398;21.154;2023-12-28T03:38:27;99783.13;;;2.17;100.00
84880;BME280;75141;51.398;21.154;2023-12-28T03:39:28;99784.00;;;2.17;100.00
84880;BME280;75141;51.398;21.154;2023-12-28T03:40:29;99782.25;;;2.16;100.00
84880;BME280;75141;51.398;21.154;2023-12-28T03:41:30;99788.38;;;2.15;100.00
84880;BME280;75141;51.398;21.154;2023-12-28T03:42:30;99782.25;;;2.15;100.00
84880;BME280;75141;51.398;21.154;2023-12-28T03:43:31;99777.91;;;2.15;100.00
84880;BME280;75141;51.398;21.154;2023-12-28T03:44:32;99773.56;;;2.19;100.00
84880;BME280;75141;51.398;21.154;2023-12-28T03:45:32;99774.41;;;2.16;100.00
84880;BME280;75141;51.398;21.154;2023-12-28T03:46:33;99775.28;;;2.17;100.00
84880;BME280;75141;51.398;21.154;2023-12-28T03:47:34;99771.78;;;2.18;100.00
84880;BME280;75141;51.398;21.154;2023-12-28T03:48:36;99765.72;;;2.20;100.00
84880;BME280;75141;51.398;21.154;2023-12-28T03:49:37;99749.97;;;2.13;100.00
84880;BME280;75141;51.398;21.154;2023-12-28T03:50:37;99763.09;;;2.20;100.00
84880;BME280;75141;51.398;21.154;2023-12-28T03:51:38;99753.50;;;2.19;100.00
84880;BME280;75141;51.398;21.154;2023-12-28T03:52:39;99750.88;;;2.19;100.00
84880;BME280;75141;51.398;21.154;2023-12-28T03:53:39;99743.00;;;2.18;100.00
84880;BME280;75141;51.398;21.154;2023-12-28T03:54:40;99744.78;;;2.20;100.00
84880;BME280;75141;51.398;21.154;2023-12-28T03:55:41;99740.41;;;2.21;100.00
84880;BME280;75141;51.398;21.154;2023-12-28T03:56:42;99742.16;;;2.23;100.00
84880;BME280;75141;51.398;21.154;2023-12-28T03:57:43;99732.56;;;2.21;100.00
84880;BME280;75141;51.398;21.154;2023-12-28T03:58:46;99736.94;;;2.23;100.00
84880;BME280;75141;51.398;21.154;2023-12-28T03:59:47;99729.06;;;2.22;100.00
84880;BME280;75141;51.398;21.154;2023-12-28T04:00:48;99730.81;;;2.20;100.00
84880;BME280;75141;51.398;21.154;2023-12-28T04:01:48;99729.06;;;2.20;100.00
84880;BME280;75141;51.398;21.154;2023-12-28T04:02:49;99732.56;;;2.19;100.00
84880;BME280;75141;51.398;21.154;2023-12-28T04:03:50;99729.06;;;2.19;100.00
84880;BME280;75141;51.398;21.154;2023-12-28T04:04:50;99734.28;;;2.20;100.00
84880;BME280;75141;51.398;21.154;2023-12-28T04:05:52;99726.47;;;2.23;100.00
84880;BME280;75141;51.398;21.154;2023-12-28T04:06:52;99743.03;;;2.21;100.00
84880;BME280;75141;51.398;21.154;2023-12-28T04:07:53;99731.66;;;2.17;100.00
84880;BME280;75141;51.398;21.154;2023-12-28T04:08:54;99738.69;;;2.24;100.00
84880;BME280;75141;51.398;21.154;2023-12-28T04:09:54;99736.03;;;2.20;100.00
84880;BME280;75141;51.398;21.154;2023-12-28T04:10:56;99737.78;;;2.21;100.00
84880;BME280;75141;51.398;21.154;2023-12-28T04:11:57;99731.66;;;2.17;100.00
84880;BME280;75141;51.398;21.154;2023-12-28T04:12:58;99733.44;;;2.20;100.00
84880;BME280;75141;51.398;21.154;2023-12-28T04:14:00;99736.03;;;2.21;100.00
84880;BME280;75141;51.398;21.154;2023-12-28T04:15:01;99745.66;;;2.27;100.00
84880;BME280;75141;51.398;21.154;2023-12-28T04:16:02;99737.81;;;2.24;100.00
84880;BME280;75141;51.398;21.154;2023-12-28T04:17:03;99743.03;;;2.27;100.00
84880;BME280;75141;51.398;21.154;2023-12-28T04:18:04;99737.78;;;2.22;100.00
84880;BME280;75141;51.398;21.154;2023-12-28T04:19:04;99737.81;;;2.28;100.00
84880;BME280;75141;51.398;21.154;2023-12-28T04:20:06;99739.53;;;2.28;100.00
84880;BME280;75141;51.398;21.154;2023-12-28T04:21:10;99743.94;;;2.29;100.00
84880;BME280;75141;51.398;21.154;2023-12-28T04:22:12;99742.16;;;2.28;100.00
84880;BME280;75141;51.398;21.154;2023-12-28T04:23:13;99734.28;;;2.22;100.00
84880;BME280;75141;51.398;21.154;2023-12-28T04:24:14;99745.66;;;2.27;100.00
84880;BME280;75141;51.398;21.154;2023-12-28T04:25:15;99729.06;;;2.19;100.00
84880;BME280;75141;51.398;21.154;2023-12-28T04:26:18;99735.16;;;2.19;100.00
84880;BME280;75141;51.398;21.154;2023-12-28T04:27:20;99743.00;;;2.22;100.00
84880;BME280;75141;51.398;21.154;2023-12-28T04:28:21;99735.16;;;2.22;100.00
84880;BME280;75141;51.398;21.154;2023-12-28T04:29:22;99740.41;;;2.25;100.00
84880;BME280;75141;51.398;21.154;2023-12-28T04:30:22;99743.88;;;2.23;100.00
84880;BME280;75141;51.398;21.154;2023-12-28T04:31:26;99742.16;;;2.22;100.00
84880;BME280;75141;51.398;21.154;2023-12-28T04:32:27;99735.16;;;2.21;100.00
84880;BME280;75141;51.398;21.154;2023-12-28T04:33:27;99735.16;;;2.22;100.00
84880;BME280;75141;51.398;21.154;2023-12-28T04:34:28;99729.06;;;2.20;100.00
84880;BME280;75141;51.398;21.154;2023-12-28T04:35:29;99729.06;;;2.20;100.00
84880;BME280;75141;51.398;21.154;2023-12-28T04:36:30;99717.69;;;2.12;100.00
84880;BME280;75141;51.398;21.154;2023-12-28T04:37:31;99728.19;;;2.20;100.00
84880;BME280;75141;51.398;21.154;2023-12-28T04:38:33;99720.31;;;2.17;100.00
84880;BME280;75141;51.398;21.154;2023-12-28T04:39:33;99726.44;;;2.22;100.00
84880;BME280;75141;51.398;21.154;2023-12-28T04:40:34;99718.59;;;2.20;100.00
84880;BME280;75141;51.398;21.154;2023-12-28T04:41:35;99724.69;;;2.21;100.00
84880;BME280;75141;51.398;21.154;2023-12-28T04:42:36;99727.31;;;2.21;100.00
84880;BME280;75141;51.398;21.154;2023-12-28T04:43:37;99722.06;;;2.16;100.00
84880;BME280;75141;51.398;21.154;2023-12-28T04:44:39;99729.06;;;2.22;100.00
84880;BME280;75141;51.398;21.154;2023-12-28T04:45:40;99704.63;;;2.14;100.00
84880;BME280;75141;51.398;21.154;2023-12-28T04:46:40;99719.47;;;2.21;100.00
84880;BME280;75141;51.398;21.154;2023-12-28T04:47:43;99722.06;;;2.22;100.00
84880;BME280;75141;51.398;21.154;2023-12-28T04:48:44;99724.69;;;2.19;100.00
84880;BME280;75141;51.398;21.154;2023-12-28T04:49:45;99718.53;;;2.13;100.00
84880;BME280;75141;51.398;21.154;2023-12-28T04:50:49;99704.59;;;2.15;100.00
84880;BME280;75141;51.398;21.154;2023-12-28T04:51:50;99697.63;;;2.14;100.00
84880;BME280;75141;51.398;21.154;2023-12-28T04:52:51;99707.25;;;2.21;100.00
84880;BME280;75141;51.398;21.154;2023-12-28T04:53:52;99705.53;;;2.23;100.00
84880;BME280;75141;51.398;21.154;2023-12-28T04:54:52;99715.13;;;2.37;100.00
84880;BME280;75141;51.398;21.154;2023-12-28T04:55:55;99703.75;;;2.27;100.00
84880;BME280;75141;51.398;21.154;2023-12-28T04:56:56;99709.03;;;2.34;100.00
84880;BME280;75141;51.398;21.154;2023-12-28T04:57:57;99703.78;;;2.36;100.00
84880;BME280;75141;51.398;21.154;2023-12-28T04:58:57;99710.78;;;2.37;100.00
84880;BME280;75141;51.398;21.154;2023-12-28T04:59:58;99696.81;;;2.35;100.00
84880;BME280;75141;51.398;21.154;2023-12-28T05:01:01;99697.69;;;2.34;100.00
84880;BME280;75141;51.398;21.154;2023-12-28T05:02:02;99695.97;;;2.39;100.00
84880;BME280;75141;51.398;21.154;2023-12-28T05:03:03;99697.72;;;2.39;100.00
84880;BME280;75141;51.398;21.154;2023-12-28T05:04:03;99698.56;;;2.39;100.00
84880;BME280;75141;51.398;21.154;2023-12-28T05:05:05;99693.34;;;2.44;100.00
84880;BME280;75141;51.398;21.154;2023-12-28T05:06:06;99693.34;;;2.39;100.00
84880;BME280;75141;51.398;21.154;2023-12-28T05:07:06;99684.59;;;2.43;100.00
84880;BME280;75141;51.398;21.154;2023-12-28T05:08:07;99688.97;;;2.47;100.00
84880;BME280;75141;51.398;21.154;2023-12-28T05:09:08;99681.97;;;2.43;100.00
84880;BME280;75141;51.398;21.154;2023-12-28T05:10:09;99672.41;;;2.39;100.00
84880;BME280;75141;51.398;21.154;2023-12-28T05:11:09;99678.50;;;2.44;100.00
84880;BME280;75141;51.398;21.154;2023-12-28T05:12:10;99682.84;;;2.48;100.00
84880;BME280;75141;51.398;21.154;2023-12-28T05:13:11;99685.50;;;2.50;100.00
84880;BME280;75141;51.398;21.154;2023-12-28T05:14:12;99671.50;;;2.48;100.00
84880;BME280;75141;51.398;21.154;2023-12-28T05:15:12;99673.28;;;2.49;100.00
84880;BME280;75141;51.398;21.154;2023-12-28T05:16:13;99673.28;;;2.49;100.00
84880;BME280;75141;51.398;21.154;2023-12-28T05:17:14;99674.13;;;2.52;100.00
84880;BME280;75141;51.398;21.154;2023-12-28T05:18:15;99669.78;;;2.54;100.00
84880;BME280;75141;51.398;21.154;2023-12-28T05:19:15;99668.03;;;2.53;100.00
84880;BME280;75141;51.398;21.154;2023-12-28T05:20:16;99654.94;;;2.52;100.00
84880;BME280;75141;51.398;21.154;2023-12-28T05:21:17;99646.22;;;2.50;100.00